Belton, South Carolina
Current Conditions -  °F | °C
As of 9:56 PM on Sunday 21 Dec 2014 (Local Time) from KAND Reporting Station
Overcast Overcast  
Wind Chill:   Ceiling: 2800
Heat Index:   Visibility: 10mi
Dew Point:   Wind: 8mph
Humidity: 71%   Direction: 60°ENE
Pressure: 30.15"   Gusts: NA
Location:  34.52°N, 82.49°W
Report Text: KAND 220256Z AUTO 06007KT 10SM OVC028 09/04 A3015 RMK AO2 SLP211 T00890039 55003
Loading
Personal Weather Stations






























Interactive Weather Map New forecast layout! Learn more

10-Day Weather Forecast

Advertisements
Track Severe Weather on mobile